This is the latest recevied weather packets stored in our database for station/object WS2Z. If no packets are shown the sender has not sent any weather packets the latest 1 day(s).
| Time | Temp. | Humidity | Pressure | Rain* | Wind** | Luminosity | Snow |
|---|---|---|---|---|---|---|---|
| 1778104059 | 30° C | 60% | 1015.5 hPa | 0 mm | - | 290 W/m² | - |
| 1778103455 | 29.44° C | 61% | 1015.5 hPa | 0 mm | - | 308 W/m² | - |
| 1778102849 | 30° C | 61% | 1015.5 hPa | 0 mm | - | 363 W/m² | - |
| 1778099815 | 31.11° C | 56% | 1015.4 hPa | 0 mm | - | 536 W/m² | - |
| 1778099512 | 31.11° C | 57% | 1015.4 hPa | 0 mm | - | 545 W/m² | - |
| 1778099210 | 31.11° C | 57% | 1015.4 hPa | 0 mm | - | 569 W/m² | - |
| 1778098299 | 31.67° C | 54% | 1015.6 hPa | 0 mm | - | 618 W/m² | - |
| 1778094054 | 31.11° C | 60% | 1016.2 hPa | 0 mm | - | 326 W/m² | - |
| 1778093145 | 30.56° C | 63% | 1016.3 hPa | 0 mm | - | 965 W/m² | - |
| 1778092538 | 31.11° C | 61% | 1016.4 hPa | 0 mm | - | 289 W/m² | - |
| 1778092235 | 31.11° C | 62% | 1016.3 hPa | 0 mm | - | 290 W/m² | - |
| 1778090417 | 30.56° C | 63% | 1016.8 hPa | 0 mm | - | 242 W/m² | - |
| 1778089810 | 30.56° C | 65% | 1016.9 hPa | 0 mm | - | 293 W/m² | - |
| 1778087992 | 31.67° C | 54% | 1017 hPa | 0 mm | - | 202 W/m² | - |
| 1778085873 | 33.33° C | 47% | 1017.3 hPa | 0 mm | - | 951 W/m² | - |
| 1778085266 | 32.78° C | 50% | 1017.4 hPa | 0 mm | - | 880 W/m² | - |
| 1778083448 | 31.67° C | 56% | 1017.3 hPa | 0 mm | - | 722 W/m² | - |
| 1778080812 | 30.56° C | 63% | 1017.4 hPa | 0 mm | - | 153 W/m² | - |
| 1778078690 | 29.44° C | 70% | 1017.2 hPa | 0 mm | - | 292 W/m² | - |
| 1778077481 | 29.44° C | 66% | 1017.4 hPa | 0 mm | - | 419 W/m² | - |
| 1778076271 | 28.33° C | 71% | 1017.2 hPa | 0 mm | - | 542 W/m² | - |
| 1778074755 | 27.22° C | 79% | 1016.9 hPa | 0 mm | - | 463 W/m² | - |
| 1778073845 | 26.11° C | 82% | 1017 hPa | 0 mm | - | 232 W/m² | - |
| 1778073239 | 24.44° C | 87% | 1016.9 hPa | 0 mm | - | 79 W/m² | - |
| 1778071727 | 23.89° C | 89% | 1016.8 hPa | 0 mm | - | 65 W/m² | - |
* Rain latest hour (hover to see other rain measurements)
** Current wind speed in m/s (hover to see current wind gust speed)